Time;durP1;ratioP1;P1;durP2;ratioP2;P2;SDS_P1;SDS_P2;PMS_P1;PMS_P2;Temp;Humidity;BMP_temperature;BMP_pressure;BME280_temperature;BME280_humidity;BME280_pressure;Samples;Min_cycle;Max_cycle;Signal;HPM_P1;HPM_P2
2021/10/19 00:01:48;;;;;;;;;;;12.60;99.90;;;;;;1831209;76;20165;-76
2021/10/19 00:04:14;;;;;;;;;;;12.60;99.90;;;;;;1832465;76;20221;-76
2021/10/19 00:06:41;;;;;;;;;;;12.60;99.90;;;;;;1828103;76;20115;-76
2021/10/19 00:09:08;;;;;;;;;;;12.60;99.90;;;;;;1828308;76;20305;-76
2021/10/19 00:11:35;;;;;;;;;;;12.60;99.90;;;;;;1828860;76;20154;-76
2021/10/19 00:14:02;;;;;;;;;;;12.70;99.90;;;;;;1827918;76;20131;-76
2021/10/19 00:16:30;;;;;;;;;;;12.70;99.90;;;;;;1828160;76;20547;-76
2021/10/19 00:18:57;;;;;;;;;;;12.70;99.90;;;;;;1826413;75;20193;-76
2021/10/19 00:21:24;;;;;;;;;;;12.60;99.90;;;;;;1825759;76;20173;-76
2021/10/19 00:23:50;;;;;;;;;;;12.70;99.90;;;;;;1829512;76;20174;-73
2021/10/19 00:26:17;;;;;;;;;;;12.70;99.90;;;;;;1825115;76;20174;-76
2021/10/19 00:28:44;;;;;;;;;;;12.70;99.90;;;;;;1841149;75;20176;-76
2021/10/19 00:31:11;;;;;;;;;;;12.70;99.90;;;;;;1856382;75;20233;-75
2021/10/19 00:33:38;;;;;;;;;;;12.70;99.90;;;;;;1862199;75;20208;-75
2021/10/19 00:36:05;;;;;;;;;;;12.70;99.90;;;;;;1857449;75;20175;-75
2021/10/19 00:38:31;;;;;;;;;;;12.70;99.90;;;;;;1856021;75;20256;-75
2021/10/19 00:40:58;;;;;;;;;;;12.70;99.90;;;;;;1855214;75;20167;-75
2021/10/19 00:43:26;;;;;;;;;;;12.80;99.90;;;;;;1857588;75;20436;-74
2021/10/19 00:45:54;;;;;;;;;;;12.70;99.90;;;;;;1857674;75;20181;-76
2021/10/19 00:48:24;;;;;;;;;;;12.80;99.90;;;;;;1858825;75;20242;-75
2021/10/19 00:50:49;;;;;;;;;;;12.80;99.90;;;;;;1858265;75;20201;-75
2021/10/19 00:53:16;;;;;;;;;;;12.80;99.90;;;;;;1857887;75;20207;-75
2021/10/19 00:55:44;;;;;;;;;;;12.80;99.90;;;;;;1857023;75;20541;-75
2021/10/19 00:58:11;;;;;;;;;;;12.80;99.90;;;;;;1857972;75;20384;-76
2021/10/19 01:00:38;;;;;;;;;;;12.80;99.90;;;;;;1857010;75;20474;-76
2021/10/19 01:03:05;;;;;;;;;;;12.80;99.90;;;;;;1858731;75;20129;-76
2021/10/19 01:05:33;;;;;;;;;;;12.70;99.90;;;;;;1858897;75;20194;-76
2021/10/19 01:07:59;;;;;;;;;;;12.70;99.90;;;;;;1857931;75;20536;-74
2021/10/19 01:10:26;;;;;;;;;;;12.70;99.90;;;;;;1858019;75;20190;-75
2021/10/19 01:12:53;;;;;;;;;;;12.70;99.90;;;;;;1858913;75;20167;-75
2021/10/19 01:15:20;;;;;;;;;;;12.70;99.90;;;;;;1859043;74;20195;-72
2021/10/19 01:17:48;;;;;;;;;;;12.70;99.90;;;;;;1858017;75;20168;-75
2021/10/19 01:20:19;;;;;;;;;;;12.70;99.90;;;;;;1858232;75;20386;-75
2021/10/19 01:22:45;;;;;;;;;;;12.70;99.90;;;;;;1860368;75;20183;-74
2021/10/19 01:25:14;;;;;;;;;;;12.70;99.90;;;;;;1852565;75;20241;-74
2021/10/19 01:27:44;;;;;;;;;;;12.70;99.90;;;;;;1857287;75;20457;-77
2021/10/19 01:30:11;;;;;;;;;;;12.70;99.90;;;;;;1856388;75;20128;-76
2021/10/19 01:32:38;;;;;;;;;;;12.70;99.90;;;;;;1858237;75;20180;-75
2021/10/19 01:35:05;;;;;;;;;;;12.70;99.90;;;;;;1856591;75;20473;-76
2021/10/19 01:37:32;;;;;;;;;;;12.70;99.90;;;;;;1858761;75;20259;-76
2021/10/19 01:39:59;;;;;;;;;;;12.70;99.90;;;;;;1858031;75;20163;-76
2021/10/19 01:42:26;;;;;;;;;;;12.60;99.90;;;;;;1853886;74;20225;-75
2021/10/19 01:44:53;;;;;;;;;;;12.60;99.90;;;;;;1854099;75;20648;-76
2021/10/19 01:47:20;;;;;;;;;;;12.60;99.90;;;;;;1855303;75;20163;-76
2021/10/19 01:49:47;;;;;;;;;;;12.60;99.90;;;;;;1856084;75;20161;-76
2021/10/19 01:52:13;;;;;;;;;;;12.60;99.90;;;;;;1859661;75;20161;-75
2021/10/19 01:54:40;;;;;;;;;;;12.60;99.90;;;;;;1853872;75;20114;-75
2021/10/19 01:57:07;;;;;;;;;;;12.50;99.90;;;;;;1857446;75;20165;-76
2021/10/19 01:59:34;;;;;;;;;;;12.50;99.90;;;;;;1860918;75;20196;-76
2021/10/19 02:02:00;;;;;;;;;;;12.60;99.90;;;;;;1860173;75;20275;-76
2021/10/19 02:04:27;;;;;;;;;;;12.60;99.90;;;;;;1857488;75;20186;-76
2021/10/19 02:06:54;;;;;;;;;;;12.60;99.90;;;;;;1858073;75;20215;-76
2021/10/19 02:09:21;;;;;;;;;;;12.60;99.90;;;;;;1857272;75;20180;-76
2021/10/19 02:11:48;;;;;;;;;;;12.60;99.90;;;;;;1857682;75;20180;-76
2021/10/19 02:14:14;;;;;;;;;;;12.60;99.90;;;;;;1862342;75;20126;-76
2021/10/19 02:16:41;;;;;;;;;;;12.60;99.90;;;;;;1859578;75;20517;-75
2021/10/19 02:19:08;;;;;;;;;;;12.50;99.90;;;;;;1857427;75;20132;-76
2021/10/19 02:21:35;;;;;;;;;;;12.60;99.90;;;;;;1856006;75;20823;-75
2021/10/19 02:24:02;;;;;;;;;;;12.50;99.90;;;;;;1858782;75;20184;-75
2021/10/19 02:26:28;;;;;;;;;;;12.50;99.90;;;;;;1856805;75;20116;-76
2021/10/19 02:28:55;;;;;;;;;;;12.50;99.90;;;;;;1857514;75;20173;-75
2021/10/19 02:31:22;;;;;;;;;;;12.50;99.90;;;;;;1853358;75;20182;-77
2021/10/19 02:33:49;;;;;;;;;;;12.50;99.90;;;;;;1859277;74;20134;-77
2021/10/19 02:36:16;;;;;;;;;;;12.50;99.90;;;;;;1856270;75;20178;-77
2021/10/19 02:38:42;;;;;;;;;;;12.50;99.90;;;;;;1853908;75;20218;-77
2021/10/19 02:41:09;;;;;;;;;;;12.50;99.90;;;;;;1858414;75;20139;-76
2021/10/19 02:43:36;;;;;;;;;;;12.50;99.90;;;;;;1856042;75;20184;-77
2021/10/19 02:46:03;;;;;;;;;;;12.50;99.90;;;;;;1855817;75;20192;-77
2021/10/19 02:48:30;;;;;;;;;;;12.50;99.90;;;;;;1858846;75;20151;-76
2021/10/19 02:50:56;;;;;;;;;;;12.50;99.90;;;;;;1860044;75;20265;-76
2021/10/19 02:53:23;;;;;;;;;;;12.50;99.90;;;;;;1858498;75;20211;-77
2021/10/19 02:55:50;;;;;;;;;;;12.50;99.90;;;;;;1859975;75;20443;-76
2021/10/19 02:58:17;;;;;;;;;;;12.50;99.90;;;;;;1858616;75;20180;-77
2021/10/19 03:00:44;;;;;;;;;;;12.50;99.90;;;;;;1857750;75;20377;-76
2021/10/19 03:03:10;;;;;;;;;;;12.50;99.90;;;;;;1857483;74;20181;-75
2021/10/19 03:05:37;;;;;;;;;;;12.50;99.90;;;;;;1854829;75;20524;-76
2021/10/19 03:08:04;;;;;;;;;;;12.50;99.90;;;;;;1857112;75;20169;-75
2021/10/19 03:10:31;;;;;;;;;;;12.50;99.90;;;;;;1857510;75;20206;-75
2021/10/19 03:12:58;;;;;;;;;;;12.50;99.90;;;;;;1860058;75;20427;-76
2021/10/19 03:15:24;;;;;;;;;;;12.50;99.90;;;;;;1860764;75;20196;-75
2021/10/19 03:17:51;;;;;;;;;;;12.50;99.90;;;;;;1859165;75;20507;-76
2021/10/19 03:20:18;;;;;;;;;;;12.40;99.90;;;;;;1857156;75;20118;-78
2021/10/19 03:22:45;;;;;;;;;;;12.50;99.90;;;;;;1859871;75;20221;-75
2021/10/19 03:25:12;;;;;;;;;;;12.40;99.90;;;;;;1859491;75;20467;-76
2021/10/19 03:27:39;;;;;;;;;;;12.50;99.90;;;;;;1857952;75;20159;-74
2021/10/19 03:30:07;;;;;;;;;;;12.50;99.90;;;;;;1858172;75;20513;-76
2021/10/19 03:32:34;;;;;;;;;;;12.50;99.90;;;;;;1858654;75;20310;-76
2021/10/19 03:35:01;;;;;;;;;;;12.50;99.90;;;;;;1866397;75;20414;-76
2021/10/19 03:37:27;;;;;;;;;;;12.50;99.90;;;;;;1856060;75;20224;-77
2021/10/19 03:39:54;;;;;;;;;;;12.50;99.90;;;;;;1855592;75;20177;-77
2021/10/19 03:42:21;;;;;;;;;;;12.60;99.90;;;;;;1856678;75;20136;-75
2021/10/19 03:44:48;;;;;;;;;;;12.50;99.90;;;;;;1856754;75;20224;-74
2021/10/19 03:47:15;;;;;;;;;;;12.50;99.90;;;;;;1856992;75;20168;-74
2021/10/19 03:49:41;;;;;;;;;;;12.50;99.90;;;;;;1852022;75;20167;-74
2021/10/19 03:52:08;;;;;;;;;;;12.60;99.90;;;;;;1854090;75;20512;-76
2021/10/19 03:54:35;;;;;;;;;;;12.60;99.90;;;;;;1854854;75;20165;-75
2021/10/19 03:57:05;;;;;;;;;;;12.60;99.90;;;;;;1857567;75;20227;-73
2021/10/19 03:59:32;;;;;;;;;;;12.60;99.90;;;;;;1856016;75;20213;-77
2021/10/19 04:01:59;;;;;;;;;;;12.60;99.90;;;;;;1858238;75;20154;-75
2021/10/19 04:04:26;;;;;;;;;;;12.60;99.90;;;;;;1856088;75;20172;-74
2021/10/19 04:06:53;;;;;;;;;;;12.70;99.90;;;;;;1857940;75;20486;-74
2021/10/19 04:09:20;;;;;;;;;;;12.60;99.90;;;;;;1858681;75;20171;-73
2021/10/19 04:11:47;;;;;;;;;;;12.70;99.90;;;;;;1857680;75;20120;-74
2021/10/19 04:14:14;;;;;;;;;;;12.70;99.90;;;;;;1856675;75;20207;-74
2021/10/19 04:16:41;;;;;;;;;;;12.70;99.90;;;;;;1856231;75;20224;-74
2021/10/19 04:19:07;;;;;;;;;;;12.70;99.90;;;;;;1857266;75;20173;-74
2021/10/19 04:21:34;;;;;;;;;;;12.70;99.90;;;;;;1858544;75;20200;-74
2021/10/19 04:24:01;;;;;;;;;;;12.70;99.90;;;;;;1858473;75;20191;-74
2021/10/19 04:26:28;;;;;;;;;;;12.70;99.90;;;;;;1857854;75;20158;-74
2021/10/19 04:28:55;;;;;;;;;;;12.70;99.90;;;;;;1857290;75;20472;-76
2021/10/19 04:31:21;;;;;;;;;;;12.70;99.90;;;;;;1857781;75;20152;-76
2021/10/19 04:33:48;;;;;;;;;;;12.70;99.90;;;;;;1860656;75;20857;-76
2021/10/19 04:36:15;;;;;;;;;;;12.70;99.90;;;;;;1853751;75;20210;-76
2021/10/19 04:38:42;;;;;;;;;;;12.70;99.90;;;;;;1856484;75;20470;-76
2021/10/19 04:41:09;;;;;;;;;;;12.70;99.90;;;;;;1859234;75;20163;-73
2021/10/19 04:43:35;;;;;;;;;;;12.70;99.90;;;;;;1860098;75;20182;-74
2021/10/19 04:46:02;;;;;;;;;;;12.70;99.90;;;;;;1857448;75;20132;-75
2021/10/19 04:48:29;;;;;;;;;;;12.80;99.90;;;;;;1857729;75;20172;-76
2021/10/19 04:50:56;;;;;;;;;;;12.80;99.90;;;;;;1855413;75;20129;-77
2021/10/19 04:53:23;;;;;;;;;;;12.80;99.90;;;;;;1859088;77;20178;-76
2021/10/19 04:55:50;;;;;;;;;;;12.80;99.90;;;;;;1856923;75;20180;-75
2021/10/19 04:58:16;;;;;;;;;;;12.90;99.90;;;;;;1858322;75;20127;-77
2021/10/19 05:00:46;;;;;;;;;;;12.80;99.90;;;;;;1860580;74;20177;-77
2021/10/19 05:03:12;;;;;;;;;;;12.80;99.90;;;;;;1862612;75;20483;-77
2021/10/19 05:05:39;;;;;;;;;;;12.80;99.90;;;;;;1855905;75;20125;-76
2021/10/19 05:08:05;;;;;;;;;;;12.80;99.90;;;;;;1856094;75;20184;-76
2021/10/19 05:10:32;;;;;;;;;;;12.80;99.90;;;;;;1861615;75;20227;-75
2021/10/19 05:12:59;;;;;;;;;;;12.80;99.90;;;;;;1854736;75;20126;-73
2021/10/19 05:15:26;;;;;;;;;;;12.90;99.90;;;;;;1860544;75;20189;-74
2021/10/19 05:17:53;;;;;;;;;;;12.90;99.90;;;;;;1858995;75;20249;-73
2021/10/19 05:20:20;;;;;;;;;;;12.90;99.90;;;;;;1854536;75;20529;-75
2021/10/19 05:22:47;;;;;;;;;;;12.90;99.90;;;;;;1852627;75;20186;-75
2021/10/19 05:25:15;;;;;;;;;;;12.80;99.90;;;;;;1856813;75;20234;-75
2021/10/19 05:27:43;;;;;;;;;;;12.90;99.90;;;;;;1859516;74;20156;-75
2021/10/19 05:30:10;;;;;;;;;;;12.90;99.90;;;;;;1830724;73;20202;-77
2021/10/19 05:32:37;;;;;;;;;;;12.80;99.90;;;;;;1813813;79;20185;-75
2021/10/19 05:35:04;;;;;;;;;;;12.80;99.90;;;;;;1812208;79;20169;-78
2021/10/19 05:37:30;;;;;;;;;;;12.90;99.90;;;;;;1816129;77;20227;-78
2021/10/19 05:39:57;;;;;;;;;;;12.80;99.90;;;;;;1814738;77;20126;-75
2021/10/19 05:42:24;;;;;;;;;;;12.90;99.90;;;;;;1808948;79;20158;-80
2021/10/19 05:44:51;;;;;;;;;;;12.90;99.90;;;;;;1809757;77;20213;-76
2021/10/19 05:47:18;;;;;;;;;;;12.90;99.90;;;;;;1809261;77;20229;-78
2021/10/19 05:49:45;;;;;;;;;;;12.90;99.90;;;;;;1810710;77;20193;-76
2021/10/19 05:52:12;;;;;;;;;;;12.90;99.90;;;;;;1810984;79;20131;-77
2021/10/19 05:54:39;;;;;;;;;;;12.90;99.90;;;;;;1808492;79;20185;-77
2021/10/19 05:57:06;;;;;;;;;;;12.90;99.90;;;;;;1816568;79;20195;-77
2021/10/19 05:59:32;;;;;;;;;;;12.80;99.90;;;;;;1814256;79;20260;-76
2021/10/19 06:01:59;;;;;;;;;;;12.90;99.90;;;;;;1810842;77;20142;-76
2021/10/19 06:04:27;;;;;;;;;;;12.90;99.90;;;;;;1840687;77;20120;-77
2021/10/19 06:06:55;;;;;;;;;;;13.00;99.90;;;;;;1845071;77;20250;-77
2021/10/19 06:09:21;;;;;;;;;;;13.00;99.90;;;;;;1847681;76;20203;-77
2021/10/19 06:11:48;;;;;;;;;;;13.00;99.90;;;;;;1848487;76;20128;-77
2021/10/19 06:14:16;;;;;;;;;;;13.00;99.90;;;;;;1847599;77;20474;-76
2021/10/19 06:16:43;;;;;;;;;;;13.00;99.90;;;;;;1850108;77;20185;-78
2021/10/19 06:19:10;;;;;;;;;;;13.00;99.90;;;;;;1844656;77;20230;-77
2021/10/19 06:21:36;;;;;;;;;;;13.00;99.90;;;;;;1840330;76;20122;-77
2021/10/19 06:24:03;;;;;;;;;;;13.00;99.90;;;;;;1844988;76;20193;-78
2021/10/19 06:26:35;;;;;;;;;;;13.00;99.90;;;;;;1842618;77;20470;-75
2021/10/19 06:29:00;;;;;;;;;;;13.00;99.90;;;;;;1841064;77;20228;-77
2021/10/19 06:31:26;;;;;;;;;;;13.10;99.90;;;;;;1841070;76;20215;-77
2021/10/19 06:33:53;;;;;;;;;;;13.10;99.90;;;;;;1840294;76;20542;-76
2021/10/19 06:36:20;;;;;;;;;;;13.10;99.90;;;;;;1844696;76;20216;-76
2021/10/19 06:38:47;;;;;;;;;;;13.10;99.90;;;;;;1840658;76;20402;-76
2021/10/19 06:41:14;;;;;;;;;;;13.10;99.90;;;;;;1840692;77;20192;-75
2021/10/19 06:43:41;;;;;;;;;;;13.20;99.90;;;;;;1847618;76;20125;-74
2021/10/19 06:46:07;;;;;;;;;;;13.20;99.90;;;;;;1839965;76;20191;-78
2021/10/19 06:48:34;;;;;;;;;;;13.20;99.90;;;;;;1850220;76;20173;-75
2021/10/19 06:51:02;;;;;;;;;;;13.30;99.90;;;;;;1844575;76;20192;-75
2021/10/19 06:53:29;;;;;;;;;;;13.30;99.90;;;;;;1846888;76;20195;-74
2021/10/19 06:55:56;;;;;;;;;;;13.30;99.90;;;;;;1845436;75;20134;-74
2021/10/19 06:58:25;;;;;;;;;;;13.30;99.90;;;;;;1842586;77;20529;-74
2021/10/19 07:00:53;;;;;;;;;;;13.30;99.90;;;;;;1839790;77;20623;-75
2021/10/19 07:03:21;;;;;;;;;;;13.30;99.90;;;;;;1839180;76;20312;-77
2021/10/19 07:05:48;;;;;;;;;;;13.30;99.90;;;;;;1839280;76;20136;-74
2021/10/19 07:08:15;;;;;;;;;;;13.30;99.90;;;;;;1853959;75;20181;-75
2021/10/19 07:10:41;;;;;;;;;;;13.40;99.90;;;;;;1841869;76;20447;-75
2021/10/19 07:13:08;;;;;;;;;;;13.40;99.90;;;;;;1839415;76;20236;-74
2021/10/19 07:15:35;;;;;;;;;;;13.40;99.90;;;;;;1842182;77;20130;-75
2021/10/19 07:18:04;;;;;;;;;;;13.50;99.90;;;;;;1839058;76;20160;-75
2021/10/19 07:20:30;;;;;;;;;;;13.50;99.90;;;;;;1840132;76;20177;-75
2021/10/19 07:22:59;;;;;;;;;;;13.50;99.90;;;;;;1843687;76;20169;-74
2021/10/19 07:25:27;;;;;;;;;;;13.50;99.90;;;;;;1842542;76;20167;-75
2021/10/19 07:27:56;;;;;;;;;;;13.60;99.90;;;;;;1845743;76;20161;-75
2021/10/19 07:30:22;;;;;;;;;;;13.60;99.90;;;;;;1841668;76;20236;-74
2021/10/19 07:32:49;;;;;;;;;;;13.60;99.90;;;;;;1842032;76;20227;-75
2021/10/19 07:35:18;;;;;;;;;;;13.60;99.90;;;;;;1844121;76;20140;-75
2021/10/19 07:37:45;;;;;;;;;;;13.60;99.90;;;;;;1842873;76;20413;-75
2021/10/19 07:40:12;;;;;;;;;;;13.70;99.90;;;;;;1847812;76;20446;-76
2021/10/19 07:42:39;;;;;;;;;;;13.70;99.90;;;;;;1856024;76;20443;-75
2021/10/19 07:45:07;;;;;;;;;;;13.70;99.90;;;;;;1842190;76;20170;-75
2021/10/19 07:47:34;;;;;;;;;;;13.70;99.90;;;;;;1841576;76;20178;-74
2021/10/19 07:50:01;;;;;;;;;;;13.70;99.90;;;;;;1842951;76;20232;-75
2021/10/19 07:52:27;;;;;;;;;;;13.80;99.90;;;;;;1841420;76;20177;-75
2021/10/19 07:54:55;;;;;;;;;;;13.80;99.90;;;;;;1843484;76;20118;-75
2021/10/19 07:57:22;;;;;;;;;;;13.80;99.90;;;;;;1844437;76;20199;-74
2021/10/19 07:59:48;;;;;;;;;;;13.80;99.90;;;;;;1846279;76;20207;-75
2021/10/19 08:02:15;;;;;;;;;;;13.90;99.90;;;;;;1845599;76;20212;-75
2021/10/19 08:04:42;;;;;;;;;;;13.90;99.90;;;;;;1840531;76;20489;-75
2021/10/19 08:07:09;;;;;;;;;;;13.90;99.90;;;;;;1842219;76;20176;-75
2021/10/19 08:09:36;;;;;;;;;;;13.90;99.90;;;;;;1843539;76;20439;-75
2021/10/19 08:12:02;;;;;;;;;;;13.90;99.90;;;;;;1840387;76;20185;-75
2021/10/19 08:14:29;;;;;;;;;;;13.90;99.90;;;;;;1840043;76;20276;-75
2021/10/19 08:16:56;;;;;;;;;;;13.90;99.90;;;;;;1849105;76;20281;-75
2021/10/19 08:19:23;;;;;;;;;;;14.00;99.90;;;;;;1839689;77;20201;-75
2021/10/19 08:21:50;;;;;;;;;;;14.00;99.90;;;;;;1846078;76;20167;-75
2021/10/19 08:24:17;;;;;;;;;;;14.00;99.90;;;;;;1845816;76;20130;-75
2021/10/19 08:26:44;;;;;;;;;;;14.00;99.90;;;;;;1848206;76;20231;-75
2021/10/19 08:29:10;;;;;;;;;;;14.00;99.90;;;;;;1844124;76;20376;-75
2021/10/19 08:31:37;;;;;;;;;;;14.10;99.90;;;;;;1848027;76;20170;-75
2021/10/19 08:34:04;;;;;;;;;;;14.10;99.90;;;;;;1838339;77;20187;-74
2021/10/19 08:36:31;;;;;;;;;;;14.10;99.90;;;;;;1840321;76;20177;-74
2021/10/19 08:38:58;;;;;;;;;;;14.10;99.90;;;;;;1841654;76;20129;-75
2021/10/19 08:41:30;;;;;;;;;;;14.20;99.90;;;;;;1848740;76;20183;-76
2021/10/19 08:43:53;;;;;;;;;;;14.20;99.90;;;;;;1845101;76;20479;-77
2021/10/19 08:46:20;;;;;;;;;;;14.20;99.90;;;;;;1844725;76;20121;-77
2021/10/19 08:48:46;;;;;;;;;;;14.30;99.90;;;;;;1842575;76;20199;-80
2021/10/19 08:51:13;;;;;;;;;;;14.30;99.90;;;;;;1843148;76;20205;-75
2021/10/19 08:53:41;;;;;;;;;;;14.30;99.90;;;;;;1842253;76;20137;-76
2021/10/19 08:56:08;;;;;;;;;;;14.40;99.90;;;;;;1845045;76;20128;-75
2021/10/19 08:58:38;;;;;;;;;;;14.40;99.90;;;;;;1842107;76;20220;-76
2021/10/19 09:01:06;;;;;;;;;;;14.40;99.90;;;;;;1843393;77;20166;-76
2021/10/19 09:03:33;;;;;;;;;;;14.50;99.90;;;;;;1839456;76;20191;-75
2021/10/19 09:06:00;;;;;;;;;;;14.50;99.90;;;;;;1849161;76;20223;-76
2021/10/19 09:08:27;;;;;;;;;;;14.50;99.90;;;;;;1842983;76;20188;-75
2021/10/19 09:10:55;;;;;;;;;;;14.50;99.90;;;;;;1845388;76;20407;-75
2021/10/19 09:13:22;;;;;;;;;;;14.60;99.90;;;;;;1841815;77;20128;-76
2021/10/19 09:15:50;;;;;;;;;;;14.60;99.90;;;;;;1856121;76;20611;-75
2021/10/19 09:18:20;;;;;;;;;;;14.60;99.90;;;;;;1841464;76;20389;-77
2021/10/19 09:20:49;;;;;;;;;;;14.60;99.90;;;;;;1854586;76;20171;-75
2021/10/19 09:23:18;;;;;;;;;;;14.60;99.90;;;;;;1848235;76;20487;-77
2021/10/19 09:25:46;;;;;;;;;;;14.60;99.90;;;;;;1858302;76;20132;-76
2021/10/19 09:28:14;;;;;;;;;;;14.60;99.90;;;;;;1845152;76;20193;-77
2021/10/19 09:30:42;;;;;;;;;;;14.60;99.90;;;;;;1844442;76;20165;-77
2021/10/19 09:33:14;;;;;;;;;;;14.60;99.90;;;;;;1848545;76;20282;-75
2021/10/19 09:35:42;;;;;;;;;;;14.60;99.90;;;;;;1845094;77;20142;-76
2021/10/19 09:38:11;;;;;;;;;;;14.60;99.90;;;;;;1841833;76;20174;-76
2021/10/19 09:40:46;;;;;;;;;;;14.70;99.90;;;;;;1845960;77;20713;-76
2021/10/19 09:43:14;;;;;;;;;;;14.70;99.90;;;;;;1845528;76;20308;-75
2021/10/19 09:45:42;;;;;;;;;;;14.60;99.90;;;;;;1845923;76;20109;-76
2021/10/19 09:48:16;;;;;;;;;;;14.60;99.90;;;;;;1841652;76;20247;-76
2021/10/19 09:50:45;;;;;;;;;;;14.60;99.90;;;;;;1845690;76;20167;-76
2021/10/19 09:53:12;;;;;;;;;;;14.60;99.90;;;;;;1837975;76;20171;-76
2021/10/19 09:55:39;;;;;;;;;;;14.60;99.90;;;;;;1839731;76;20545;-76
2021/10/19 09:58:25;;;;;;;;;;;14.70;99.90;;;;;;1847632;76;20448;-76
2021/10/19 10:00:53;;;;;;;;;;;14.70;99.90;;;;;;1813369;78;20268;-75
2021/10/19 10:03:20;;;;;;;;;;;14.70;99.90;;;;;;1788966;78;20267;-76
2021/10/19 10:05:47;;;;;;;;;;;14.70;99.90;;;;;;1816220;77;20219;-76
2021/10/19 10:08:18;;;;;;;;;;;14.70;99.90;;;;;;1813686;78;20161;-76
2021/10/19 10:10:46;;;;;;;;;;;14.80;99.90;;;;;;1847546;77;20267;-76
2021/10/19 10:13:15;;;;;;;;;;;14.80;99.90;;;;;;1840987;77;20147;-77
2021/10/19 10:15:41;;;;;;;;;;;14.80;99.90;;;;;;1846481;77;20439;-78
2021/10/19 10:18:10;;;;;;;;;;;14.80;99.90;;;;;;1847901;77;20340;-76
2021/10/19 10:20:38;;;;;;;;;;;14.80;99.90;;;;;;1845579;77;20480;-75
2021/10/19 10:23:12;;;;;;;;;;;14.80;99.90;;;;;;1844592;76;20494;-75
2021/10/19 10:25:39;;;;;;;;;;;14.80;99.90;;;;;;1838217;77;20567;-75
2021/10/19 10:28:16;;;;;;;;;;;14.90;99.90;;;;;;1845341;77;20202;-76
2021/10/19 10:30:45;;;;;;;;;;;14.90;99.90;;;;;;1844668;77;20191;-78
2021/10/19 10:33:11;;;;;;;;;;;14.90;99.90;;;;;;1846342;77;20197;-76
2021/10/19 10:35:42;;;;;;;;;;;14.90;99.90;;;;;;1848603;76;20249;-77
2021/10/19 10:38:09;;;;;;;;;;;14.90;99.90;;;;;;1849106;77;20184;-76
2021/10/19 10:40:38;;;;;;;;;;;14.90;99.90;;;;;;1846872;77;20165;-77
2021/10/19 10:43:21;;;;;;;;;;;14.90;99.90;;;;;;1844616;77;20922;-73
2021/10/19 10:45:50;;;;;;;;;;;14.90;99.90;;;;;;1852985;76;20290;-75
2021/10/19 10:48:17;;;;;;;;;;;14.80;99.90;;;;;;1841207;77;20417;-74
2021/10/19 10:50:44;;;;;;;;;;;14.80;99.90;;;;;;1841864;77;20525;-77
2021/10/19 10:53:12;;;;;;;;;;;14.80;99.90;;;;;;1846488;76;20238;-75
2021/10/19 10:55:39;;;;;;;;;;;14.80;99.90;;;;;;1848683;77;20269;-75
2021/10/19 10:58:06;;;;;;;;;;;14.70;99.90;;;;;;1844368;77;20221;-74
2021/10/19 11:00:33;;;;;;;;;;;14.80;99.90;;;;;;1846972;77;20233;-74
2021/10/19 11:03:07;;;;;;;;;;;14.70;99.90;;;;;;1843071;77;20164;-74
2021/10/19 11:05:35;;;;;;;;;;;14.80;99.90;;;;;;1841253;77;20211;-74
2021/10/19 11:08:02;;;;;;;;;;;14.70;99.90;;;;;;1845321;76;20255;-74
2021/10/19 11:10:29;;;;;;;;;;;14.80;99.90;;;;;;1842461;77;20236;-73
2021/10/19 11:13:02;;;;;;;;;;;14.70;99.90;;;;;;1847533;77;20197;-74
2021/10/19 11:15:30;;;;;;;;;;;14.70;99.90;;;;;;1850643;76;20209;-74
2021/10/19 11:17:57;;;;;;;;;;;14.70;99.90;;;;;;1848721;76;20261;-74
2021/10/19 11:20:26;;;;;;;;;;;14.70;99.90;;;;;;1843205;77;20245;-74
2021/10/19 11:22:53;;;;;;;;;;;14.70;99.90;;;;;;1848774;77;20198;-74
2021/10/19 11:25:20;;;;;;;;;;;14.70;99.90;;;;;;1848809;77;20145;-75
2021/10/19 11:27:48;;;;;;;;;;;14.70;99.90;;;;;;1848771;77;20410;-74
2021/10/19 11:30:15;;;;;;;;;;;14.70;99.90;;;;;;1850123;77;20411;-74
2021/10/19 11:32:42;;;;;;;;;;;14.70;99.90;;;;;;1846630;77;20176;-73
2021/10/19 11:35:09;;;;;;;;;;;14.70;99.90;;;;;;1846094;77;20228;-74
2021/10/19 11:37:37;;;;;;;;;;;14.70;99.90;;;;;;1843959;77;20154;-73
2021/10/19 11:40:11;;;;;;;;;;;14.70;99.90;;;;;;1844191;77;20523;-74
2021/10/19 11:42:50;;;;;;;;;;;14.70;99.90;;;;;;1847717;77;20450;-74
2021/10/19 11:45:17;;;;;;;;;;;14.70;99.90;;;;;;1850763;76;20217;-73
2021/10/19 11:47:51;;;;;;;;;;;14.70;99.90;;;;;;1844250;77;20139;-72
2021/10/19 11:50:19;;;;;;;;;;;14.70;99.90;;;;;;1845450;77;20187;-74
2021/10/19 11:52:46;;;;;;;;;;;14.70;99.90;;;;;;1844737;77;20153;-74
2021/10/19 11:55:15;;;;;;;;;;;14.70;99.90;;;;;;1843542;77;20206;-73
2021/10/19 11:57:42;;;;;;;;;;;14.70;99.90;;;;;;1851153;77;20198;-75
2021/10/19 12:00:10;;;;;;;;;;;14.70;99.90;;;;;;1845114;77;20421;-74
2021/10/19 12:02:38;;;;;;;;;;;14.70;99.90;;;;;;1843272;77;20178;-73
2021/10/19 12:05:06;;;;;;;;;;;14.70;99.90;;;;;;1839428;77;20483;-74
2021/10/19 12:07:33;;;;;;;;;;;14.80;99.90;;;;;;1844122;77;20456;-74
2021/10/19 12:10:10;;;;;;;;;;;14.70;99.90;;;;;;1850872;77;20590;-74
2021/10/19 12:12:42;;;;;;;;;;;14.80;99.90;;;;;;1843640;77;20204;-74
2021/10/19 12:15:09;;;;;;;;;;;14.80;99.90;;;;;;1840831;77;20303;-75
2021/10/19 12:17:36;;;;;;;;;;;14.80;99.90;;;;;;1848805;77;20326;-75
2021/10/19 12:20:05;;;;;;;;;;;14.80;99.90;;;;;;1841841;77;20712;-75
2021/10/19 12:22:33;;;;;;;;;;;14.80;99.90;;;;;;1847317;77;20186;-74
2021/10/19 12:25:00;;;;;;;;;;;14.80;99.90;;;;;;1846202;77;20467;-74
2021/10/19 12:27:27;;;;;;;;;;;14.80;99.90;;;;;;1847810;77;20151;-74
2021/10/19 12:29:56;;;;;;;;;;;14.90;99.90;;;;;;1842192;77;20294;-74
2021/10/19 12:32:34;;;;;;;;;;;14.90;99.90;;;;;;1845348;77;20180;-74
2021/10/19 12:35:02;;;;;;;;;;;14.90;99.90;;;;;;1843646;77;20198;-74
2021/10/19 12:37:33;;;;;;;;;;;14.90;99.90;;;;;;1846508;77;20150;-75
2021/10/19 12:40:01;;;;;;;;;;;14.90;99.90;;;;;;1843514;77;20202;-74
2021/10/19 12:42:27;;;;;;;;;;;14.90;99.90;;;;;;1847737;77;20177;-74
2021/10/19 12:44:54;;;;;;;;;;;15.00;99.90;;;;;;1844128;77;20245;-76
2021/10/19 12:47:21;;;;;;;;;;;14.90;99.90;;;;;;1848251;77;20215;-76
2021/10/19 12:49:48;;;;;;;;;;;14.90;99.90;;;;;;1847695;77;20204;-76
2021/10/19 12:52:15;;;;;;;;;;;14.90;99.90;;;;;;1843246;77;20235;-77
2021/10/19 12:54:41;;;;;;;;;;;15.00;99.90;;;;;;1844175;77;20442;-77
2021/10/19 12:57:09;;;;;;;;;;;15.00;99.90;;;;;;1844948;77;20240;-77
2021/10/19 12:59:37;;;;;;;;;;;15.00;99.90;;;;;;1846442;77;20153;-76
2021/10/19 13:02:04;;;;;;;;;;;15.00;99.90;;;;;;1842819;77;20506;-77
2021/10/19 13:04:37;;;;;;;;;;;15.00;99.90;;;;;;1850331;76;20234;-75
2021/10/19 13:07:04;;;;;;;;;;;15.00;99.90;;;;;;1845961;77;20181;-78
2021/10/19 13:09:31;;;;;;;;;;;15.00;99.90;;;;;;1848243;77;20225;-78
2021/10/19 13:11:58;;;;;;;;;;;15.00;99.90;;;;;;1844717;77;20139;-79
2021/10/19 13:14:27;;;;;;;;;;;15.00;99.90;;;;;;1843287;77;20504;-77
2021/10/19 13:16:54;;;;;;;;;;;15.00;99.90;;;;;;1842127;77;20145;-77
2021/10/19 13:19:21;;;;;;;;;;;15.00;99.90;;;;;;1846150;77;20153;-77
2021/10/19 13:21:48;;;;;;;;;;;15.00;99.90;;;;;;1845021;77;20137;-78
2021/10/19 13:24:15;;;;;;;;;;;15.00;99.90;;;;;;1846416;77;20371;-78
2021/10/19 13:26:42;;;;;;;;;;;15.10;99.90;;;;;;1853280;77;20170;-77
2021/10/19 13:29:09;;;;;;;;;;;15.10;99.90;;;;;;1843019;77;20329;-77
2021/10/19 13:31:37;;;;;;;;;;;15.10;99.90;;;;;;1847706;77;20260;-78
2021/10/19 13:34:06;;;;;;;;;;;15.10;99.90;;;;;;1850202;77;20271;-78
2021/10/19 13:36:32;;;;;;;;;;;15.10;99.90;;;;;;1846384;77;20155;-77
2021/10/19 13:38:59;;;;;;;;;;;15.10;99.90;;;;;;1849243;77;20252;-77
2021/10/19 13:41:26;;;;;;;;;;;15.20;99.90;;;;;;1844465;77;20282;-80
2021/10/19 13:43:53;;;;;;;;;;;15.20;99.90;;;;;;1851856;77;20217;-76
2021/10/19 13:46:20;;;;;;;;;;;15.20;99.90;;;;;;1845272;77;20484;-77
2021/10/19 13:48:47;;;;;;;;;;;15.20;99.90;;;;;;1845740;77;20447;-78
2021/10/19 13:51:14;;;;;;;;;;;15.20;99.90;;;;;;1842258;77;20218;-77
2021/10/19 13:53:41;;;;;;;;;;;15.20;99.90;;;;;;1851927;76;20331;-76
2021/10/19 13:56:08;;;;;;;;;;;15.20;99.90;;;;;;1848393;77;20236;-77
2021/10/19 13:58:35;;;;;;;;;;;15.20;99.90;;;;;;1843549;77;20189;-76
2021/10/19 14:01:02;;;;;;;;;;;15.20;99.90;;;;;;1848876;77;20193;-77
2021/10/19 14:03:29;;;;;;;;;;;15.20;99.90;;;;;;1847940;77;20155;-77
2021/10/19 14:05:55;;;;;;;;;;;15.20;99.90;;;;;;1852019;77;20551;-77
2021/10/19 14:08:22;;;;;;;;;;;15.20;99.90;;;;;;1847351;77;20234;-75
2021/10/19 14:10:49;;;;;;;;;;;15.20;99.90;;;;;;1844624;77;20604;-76
2021/10/19 14:13:16;;;;;;;;;;;15.20;99.90;;;;;;1848398;77;20193;-76
2021/10/19 14:15:46;;;;;;;;;;;15.20;99.90;;;;;;1845464;77;20507;-76
2021/10/19 14:18:12;;;;;;;;;;;15.20;99.90;;;;;;1847829;77;20220;-74